Thurles, Ireland
Current Conditions -  °F | °C
As of 9:00 AM on Monday 20 Oct 2014 (Local Time) from EIWF Reporting Station
Scattered Clouds Scattered Clouds  
Wind Chill: 52°   Ceiling: Unl
Heat Index: 52°   Visibility: 6mi
Dew Point: 50°   Wind: 6mph
Humidity: 94%   Direction: 270°W
Pressure: 29.97"   Gusts: NA
Location:  52.68°N, 7.48°W
Report Text: EIWF 200800Z 27005KT 230V300 9999 SCT025 SCT042 11/10 Q1015 R21/1/////
Loading
Personal Weather Stations






























Interactive Weather Map New forecast layout! Learn more

10-Day Weather Forecast

Advertisements
Track Severe Weather on mobile